Latest Weather Observations for Oodnadatta

IDS60801

Issued at 7:41 am CDT Friday 21 January 2022 (issued every 10 minutes, with the page automatically refreshed every 10 minutes)

About weather observations | Map of weather stations | Latest weather observations for SA | Other Formats
Station Details ID: 017043 Name: OODNADATTA AIRPORT Lat: -27.56 Lon: 135.45 Height: 116.5 m
Data from the previous 72 hours. | See also: Recent months at Oodnadatta
Date/Time
CDT
Temp
°C
App
Temp
°C
Dew
Point
°C
Rel
Hum
%
Delta-T
°C
Wind Press
QNH
hPa
Press
MSL
hPa
Rain since
9am
mm
Dir  Spd
km/h
Gust
km/h
Spd
kts
Gust
kts
21/07:30am 25.4 25.7 22.3 83 2.1 ENE 24 32 13 17 1010.8 1009.9 0.0
21/07:00am 25.6 25.3 21.9 80 2.5 ENE 26 35 14 19 1010.8 1009.9 0.0
21/06:30am 25.8 26.2 22.5 82 2.2 ENE 24 32 13 17 1010.6 1009.7 0.0
21/06:00am 26.0 26.7 22.9 83 2.1 ENE 24 30 13 16 1010.3 1009.5 0.0
21/05:30am 26.0 26.5 22.7 82 2.2 ENE 24 30 13 16 1010.2 1009.4 0.0
21/05:00am 26.5 26.3 22.1 77 3.0 E 26 32 14 17 1009.3 1008.5 0.0
21/04:30am 26.8 27.1 22.2 76 3.1 ESE 24 32 13 17 1009.5 1008.7 0.0
21/04:00am 27.4 28.0 22.1 73 3.6 ESE 22 26 12 14 1009.8 1009.0 0.0
21/03:30am 27.6 28.6 22.1 72 3.7 E 20 24 11 13 1010.2 1009.4 0.0
21/03:00am 27.7 28.0 22.2 72 3.7 ESE 24 28 13 15 1010.2 1009.4 0.0
21/02:30am 28.3 29.1 21.8 68 4.4 E 20 26 11 14 1010.6 1009.7 0.0
21/02:00am 28.5 29.7 21.5 66 4.7 ESE 17 22 9 12 1010.5 1009.6 0.0
21/01:30am 28.6 28.8 21.4 65 4.8 ESE 22 30 12 16 1010.2 1009.4 0.0
21/01:00am 28.7 28.5 21.2 64 5.0 SE 24 32 13 17 1010.2 1009.4 0.0
21/12:30am 29.0 28.0 21.2 62 5.2 SE 28 35 15 19 1010.5 1009.6 0.0
21/12:00am 29.0 28.2 21.7 64 4.9 SSE 28 35 15 19 1010.8 1009.9 0.0
 
Date/Time
CDT
Temp
°C
App
Temp
°C
Dew
Point
°C
Rel
Hum
%
Delta-T
°C
Wind Press
QNH
hPa
Press
MSL
hPa
Rain since
9am
mm
Dir  Spd
km/h
Gust
km/h
Spd
kts
Gust
kts
20/11:30pm 28.9 27.1 21.1 62 5.2 SE 32 41 17 22 1011.0 1010.1 0.0
20/11:00pm 29.5 28.5 21.2 61 5.6 ESE 28 35 15 19 1010.8 1009.9 0.0
20/10:30pm 30.1 29.3 20.9 57 6.2 ESE 26 33 14 18 1011.2 1010.3 0.0
20/10:00pm 30.4 29.8 21.2 58 6.2 ESE 26 33 14 18 1010.3 1009.5 0.0
20/09:30pm 30.9 29.3 20.8 55 6.8 SE 30 39 16 21 1009.9 1009.1 0.0
20/09:00pm 31.0 30.0 21.2 56 6.6 SSE 28 35 15 19 1009.3 1008.5 0.0
20/08:30pm 31.4 28.3 19.7 49 7.7 S 35 46 19 25 1008.7 1007.9 0.0
20/08:00pm 31.1 28.2 20.1 52 7.3 S 35 46 19 25 1008.4 1007.6 0.0
20/07:30pm 32.2 29.4 21.1 52 7.5 S 37 44 20 24 1007.8 1007.0 0.0
20/07:07pm 33.4 31.0 19.1 42 9.4 S 30 48 16 26 1007.5 1006.7 0.0
20/07:00pm 33.0 30.9 20.5 47 8.4 S 32 41 17 22 1007.6 1006.8 0.0
20/06:45pm 33.7 30.9 19.0 42 9.7 SSW 32 50 17 27 1007.3 1006.5 0.0
20/06:30pm 33.8 30.1 19.1 42 9.7 SSW 37 46 20 25 1007.2 1006.4 0.0
20/06:15pm 34.8 33.8 17.5 35 11.2 S 19 43 10 23 1007.0 1006.2 0.0
20/06:00pm 36.8 37.5 17.9 33 12.4 SSE 11 19 6 10 1007.1 1006.3 0.0
20/05:30pm 36.2 36.1 17.8 33 12.0 S 15 28 8 15 1007.3 1006.5 0.0
20/05:00pm 36.3 36.0 17.4 32 12.3 SE 15 20 8 11 1007.6 1006.8 0.0
20/04:30pm 36.4 36.4 18.0 33 12.1 E 15 20 8 11 1008.0 1007.2 0.0
20/04:00pm 36.6 36.8 17.7 32 12.3 E 13 22 7 12 1008.5 1007.7 0.0
20/03:30pm 37.1 37.9 19.1 35 12.0 SSE 13 26 7 14 1008.8 1008.0 0.0
20/03:00pm 35.6 35.9 18.7 37 11.2 SSE 15 22 8 12 1009.4 1008.6 0.0
20/02:30pm 36.1 36.9 19.1 36 11.3 ESE 13 22 7 12 1010.0 1009.2 0.0
20/02:00pm 34.8 35.7 19.2 39 10.3 SE 13 19 7 10 1010.3 1009.5 0.0
20/01:30pm 34.6 35.0 19.0 39 10.3 ESE 15 22 8 12 1010.8 1009.9 0.0
20/01:00pm 33.7 34.8 19.7 43 9.3 SSE 13 26 7 14 1011.1 1010.2 0.0
20/12:30pm 33.8 35.0 20.6 46 8.9 ESE 15 24 8 13 1011.3 1010.4 0.0
20/12:00pm 32.7 33.9 20.6 49 8.1 ESE 15 24 8 13 1011.7 1010.8 0.0
20/11:30am 31.5 32.0 20.1 50 7.6 SE 17 24 9 13 1011.9 1011.0 0.0
20/11:00am 30.7 31.0 19.7 52 7.2 SSE 17 32 9 17 1012.1 1011.2 0.0
20/10:30am 30.4 30.4 19.7 52 7.0 ESE 19 26 10 14 1012.3 1011.4 0.0
20/10:00am 29.1 28.9 19.4 55 6.3 ESE 19 30 10 16 1012.6 1011.8 0.0
20/09:30am 28.6 27.8 19.2 56 6.1 ESE 22 28 12 15 1012.5 1011.7 0.0
20/09:00am 27.6 26.2 18.9 59 5.6 ESE 24 28 13 15 1012.4 1011.6 0.0
20/08:30am 26.8 24.6 18.6 60 5.3 SE 28 32 15 17 1012.0 1011.1 0.0
20/08:00am 26.0 24.7 18.2 62 5.0 SE 22 30 12 16 1011.6 1010.7 0.0
20/07:30am 25.4 24.6 18.1 64 4.6 SE 19 24 10 13 1011.1 1010.2 0.0
20/07:00am 25.1 24.6 17.8 64 4.6 SE 17 20 9 11 1010.9 1010.0 0.0
20/06:30am 25.2 24.4 17.9 64 4.6 SE 19 22 10 12 1010.7 1009.8 0.0
20/06:00am 25.5 24.8 17.4 61 5.1 SE 17 22 9 12 1010.6 1009.7 0.0
20/05:30am 25.6 24.8 16.2 56 5.8 SSE 15 19 8 10 1010.3 1009.5 0.0
20/05:00am 25.7 25.1 15.7 54 6.1 SSE 13 15 7 8 1010.1 1009.3 0.0
20/04:30am 26.0 25.4 15.7 53 6.3 S 13 15 7 8 1010.1 1009.3 0.0
20/04:00am 26.4 25.5 15.8 52 6.5 S 15 17 8 9 1010.2 1009.4 0.0
20/03:30am 26.6 25.7 15.9 51 6.6 SSE 15 19 8 10 1010.1 1009.3 0.0
20/03:00am 26.8 26.3 15.8 51 6.8 SSE 13 15 7 8 1010.5 1009.6 0.0
20/02:30am 27.0 26.4 15.7 50 6.9 SSE 13 15 7 8 1010.8 1009.9 0.0
20/02:00am 27.5 26.6 15.8 48 7.2 SSE 15 17 8 9 1011.1 1010.2 0.0
20/01:30am 27.9 26.3 15.9 48 7.4 SE 19 22 10 12 1011.3 1010.4 0.0
20/01:00am 28.3 26.5 15.9 47 7.7 SSE 20 24 11 13 1011.4 1010.5 0.0
20/12:30am 28.6 26.3 15.8 45 7.9 SSE 22 30 12 16 1012.0 1011.1 0.0
20/12:00am 28.8 26.2 16.0 45 8.0 S 24 32 13 17 1011.8 1010.9 0.0
 
Date/Time
CDT
Temp
°C
App
Temp
°C
Dew
Point
°C
Rel
Hum
%
Delta-T
°C
Wind Press
QNH
hPa
Press
MSL
hPa
Rain since
9am
mm
Dir  Spd
km/h
Gust
km/h
Spd
kts
Gust
kts
19/11:30pm 29.2 25.9 16.0 44 8.2 S 28 33 15 18 1012.1 1011.2 0.0
19/11:00pm 29.6 25.6 16.1 44 8.4 S 32 37 17 20 1011.9 1011.0 0.0
19/10:30pm 29.9 26.2 16.0 43 8.7 S 30 35 16 19 1011.3 1010.4 0.0
19/10:00pm 30.1 26.7 15.8 42 8.9 SSW 28 37 15 20 1010.9 1010.0 0.0
19/09:30pm 30.3 27.0 16.0 42 8.9 S 28 37 15 20 1010.5 1009.6 0.0
19/09:00pm 30.7 27.7 15.9 40 9.2 S 26 33 14 18 1010.0 1009.2 0.0
19/08:30pm 31.0 27.6 15.8 39 9.5 S 28 35 15 19 1009.5 1008.7 0.0
19/08:00pm 31.6 27.9 16.0 39 9.8 SSW 30 39 16 21 1009.2 1008.4 0.0
19/07:30pm 31.9 27.7 15.8 38 10.1 SSW 32 41 17 22 1008.9 1008.1 0.0
19/07:00pm 32.0 28.6 15.9 38 10.1 S 28 35 15 19 1008.7 1007.9 0.0
19/06:30pm 32.8 29.4 15.8 36 10.7 SSW 28 41 15 22 1008.5 1007.7 0.0
19/06:00pm 32.6 29.9 15.6 36 10.7 S 24 35 13 19 1008.7 1007.9 0.0
19/05:30pm 32.9 30.3 15.8 35 10.8 SSW 24 33 13 18 1008.7 1007.9 0.0
19/05:00pm 32.8 30.3 16.2 37 10.5 S 24 35 13 19 1009.0 1008.2 0.0
19/04:30pm 32.8 29.6 16.2 37 10.5 S 28 35 15 19 1009.2 1008.4 0.0
19/04:00pm 34.0 31.4 16.8 35 11.0 SSW 26 35 14 19 1009.2 1008.4 0.0
19/03:30pm 32.7 31.8 16.9 38 10.1 SSE 17 30 9 16 1009.7 1008.9 0.0
19/03:00pm 31.8 30.4 16.5 39 9.7 SSE 19 30 10 16 1009.9 1009.1 0.0
19/02:30pm 31.4 30.5 16.9 41 9.2 SE 17 28 9 15 1010.1 1009.3 0.0
19/02:00pm 30.6 28.7 16.6 43 8.8 SE 22 35 12 19 1010.7 1009.8 0.0
19/01:30pm 30.3 28.5 17.0 44 8.4 SSE 22 33 12 18 1010.8 1009.9 0.0
19/01:00pm 30.0 28.4 17.5 47 8.0 SSE 22 35 12 19 1011.2 1010.3 0.0
19/12:30pm 29.2 26.7 17.1 48 7.7 SSE 26 35 14 19 1011.3 1010.4 0.0
19/12:00pm 27.9 25.5 16.5 50 7.1 SSE 24 32 13 17 1011.8 1010.9 0.0
19/11:30am 28.4 25.7 17.6 52 6.9 SSE 28 35 15 19 1011.9 1011.0 0.0
19/11:00am 26.6 23.7 17.1 56 6.0 S 28 37 15 20 1012.0 1011.1 0.0
19/10:30am 25.6 22.8 17.3 60 5.2 S 28 35 15 19 1012.2 1011.3 0.0
19/10:00am 24.7 22.5 16.9 62 4.8 S 24 33 13 18 1012.4 1011.6 0.0
19/09:30am 23.8 20.8 16.8 65 4.3 S 28 33 15 18 1012.2 1011.3 0.0
19/09:00am 23.4 21.1 16.7 66 4.1 S 24 32 13 17 1012.2 1011.3 0.0
19/08:30am 23.0 20.0 16.8 68 3.8 S 28 32 15 17 1011.8 1010.9 0.0
19/08:00am 22.9 20.1 16.4 66 4.0 S 26 30 14 16 1011.8 1010.9 0.0
19/07:30am 22.3 19.9 16.3 69 3.7 S 24 30 13 16 1011.3 1010.4 0.0
19/07:00am 21.9 18.7 16.2 70 3.5 S 28 33 15 18 1010.9 1010.0 0.0
19/06:30am 21.9 18.3 16.2 70 3.5 S 30 35 16 19 1010.6 1009.7 0.0
19/06:00am 22.2 19.2 16.7 71 3.4 S 28 35 15 19 1010.2 1009.4 0.0
19/05:30am 22.4 20.1 16.7 70 3.5 S 24 30 13 16 1010.1 1009.3 0.0
19/05:00am 22.6 20.4 16.9 70 3.5 SSE 24 32 13 17 1009.8 1009.0 0.0
19/04:30am 22.8 19.9 17.0 70 3.6 S 28 35 15 19 1009.6 1008.8 0.0
19/04:00am 22.9 20.3 16.9 69 3.7 S 26 32 14 17 1009.8 1009.0 0.0
19/03:30am 23.1 21.0 17.1 69 3.7 S 24 30 13 16 1009.6 1008.8 0.0
19/03:00am 23.3 20.4 17.1 68 3.8 SSE 28 33 15 18 1009.7 1008.9 0.0
19/02:30am 23.4 20.2 17.2 68 3.9 S 30 37 16 20 1010.1 1009.3 0.0
19/02:00am 23.6 20.0 17.1 67 4.0 S 32 39 17 21 1010.3 1009.5 0.0
19/01:30am 23.8 20.2 17.1 66 4.2 SSE 32 39 17 21 1010.7 1009.8 0.0
19/01:00am 23.9 20.4 17.4 67 4.1 SSE 32 41 17 22 1010.8 1009.9 0.0
19/12:30am 24.0 20.5 18.0 69 3.8 S 33 41 18 22 1010.8 1009.9 0.0
19/12:00am 24.3 20.2 18.2 68 3.9 SSW 37 43 20 23 1010.6 1009.7 0.0
 
Date/Time
CDT
Temp
°C
App
Temp
°C
Dew
Point
°C
Rel
Hum
%
Delta-T
°C
Wind Press
QNH
hPa
Press
MSL
hPa
Rain since
9am
mm
Dir  Spd
km/h
Gust
km/h
Spd
kts
Gust
kts
18/11:30pm 24.3 19.9 18.5 70 3.7 SSW 39 46 21 25 1010.5 1009.6 0.0
18/11:00pm 24.8 20.9 18.7 69 3.9 SSW 37 46 20 25 1010.2 1009.4 0.0
18/10:30pm 25.0 20.1 19.1 69 3.8 SSW 43 52 23 28 1009.8 1009.0 0.0
18/10:00pm 25.3 20.2 19.0 68 4.0 SSW 44 52 24 28 1009.4 1008.6 0.0
18/09:30pm 26.0 20.5 18.9 65 4.6 SSW 46 54 25 29 1009.1 1008.3 0.0
18/09:00pm 26.7 22.2 19.1 63 4.9 SSW 41 50 22 27 1008.7 1007.9 0.0
18/08:54pm 26.5 21.5 18.9 63 4.9 SSW 43 52 23 28 1008.5 1007.7 0.0
18/08:30pm 26.8 21.6 18.9 62 5.1 S 44 54 24 29 1008.1 1007.3 0.0
18/08:00pm 27.2 21.8 19.3 62 5.1 S 46 59 25 32 1007.7 1006.9 0.0
18/07:30pm 27.6 22.1 19.7 62 5.2 S 48 59 26 32 1007.2 1006.4 0.0
18/07:00pm 29.1 23.9 19.7 57 6.2 S 46 59 25 32 1006.8 1006.0 0.0
18/06:30pm 29.8 25.0 19.2 53 6.9 S 43 54 23 29 1006.1 1005.3 0.0
18/06:00pm 30.4 24.8 18.8 50 7.6 S 46 54 25 29 1006.1 1005.3 0.0
18/05:30pm 31.6 28.7 17.9 44 8.9 SSE 30 41 16 22 1005.6 1004.8 0.0
18/05:00pm 32.1 30.5 18.3 44 9.0 SSE 24 33 13 18 1006.0 1005.2 0.0
18/04:30pm 31.9 30.2 18.1 43 8.9 SSE 24 39 13 21 1005.7 1004.9 0.0
18/04:00pm 32.3 31.7 18.5 44 9.0 SSE 19 33 10 18 1006.2 1005.4 0.0
18/03:30pm 31.7 31.0 18.3 45 8.7 SSE 19 26 10 14 1006.6 1005.8 0.0
18/03:00pm 31.7 30.3 18.7 46 8.5 SE 24 33 13 18 1006.9 1006.1 0.0
18/02:30pm 30.8 29.1 18.2 47 8.2 ESE 24 32 13 17 1007.1 1006.3 0.0
18/02:07pm 32.1 30.0 19.0 45 8.6 ESE 28 46 15 25 1007.1 1006.3 0.0
18/02:00pm 31.0 29.6 18.7 48 8.0 ESE 24 35 13 19 1007.2 1006.4 0.0
18/01:30pm 30.2 28.6 18.3 49 7.7 ESE 24 32 13 17 1007.8 1007.0 0.0
18/01:00pm 30.2 27.3 18.0 48 7.8 SE 30 41 16 22 1007.8 1007.0 0.0
18/12:30pm 30.0 26.3 18.4 49 7.5 SE 35 46 19 25 1008.0 1007.2 0.0
18/12:00pm 28.6 25.3 18.4 54 6.6 SE 33 44 18 24 1008.2 1007.4 0.0
18/11:54am 28.9 25.4 18.7 54 6.6 ESE 35 54 19 29 1008.2 1007.4 0.0
18/11:30am 28.0 24.1 18.7 57 6.0 ESE 37 50 20 27 1008.3 1007.5 0.0
18/11:00am 26.7 22.4 18.6 61 5.2 ESE 39 52 21 28 1008.5 1007.7 0.0
18/10:30am 26.3 21.9 19.2 65 4.6 ESE 41 50 22 27 1008.8 1008.0 0.0
18/10:00am 25.4 20.8 18.8 67 4.2 ESE 41 54 22 29 1008.9 1008.1 0.0
18/09:30am 24.9 20.9 18.6 68 4.0 ESE 37 50 20 27 1008.5 1007.7 0.0
18/09:00am 23.9 20.0 18.8 73 3.3 SE 37 46 20 25 1008.4 1007.6 0.0
18/08:30am 23.5 20.7 19.0 76 2.9 SE 32 41 17 22 1008.4 1007.6 0.0
18/08:00am 23.2 20.8 19.2 78 2.6 SE 30 39 16 21 1008.1 1007.3 0.0

Other formats

Comma delimited format used in spreadsheet applications
http://www.bom.gov.au/fwo/IDS60801/IDS60801.94476.axf

JavaScript Object Notation format (JSON) in row-major order
http://www.bom.gov.au/fwo/IDS60801/IDS60801.94476.json

Data quality

Most of these data are generated automatically and are frequently updated. Quality checks on data are not normally performed. It is possible for incorrect values to appear. Refer to information at About Latest Weather Observations and please check the disclaimer before using these data.